createdAt,value
2023-02-24T00:01:54.453Z,97208.16
2023-02-24T00:04:21.262Z,97201.09
2023-02-24T00:06:48.429Z,97214.06
2023-02-24T00:09:18.336Z,97204.88
2023-02-24T00:11:57.229Z,97195.00
2023-02-24T00:14:26.887Z,97204.34
2023-02-24T00:16:53.780Z,97208.78
2023-02-24T00:19:23.740Z,97219.00
2023-02-24T00:21:51.840Z,97207.50
2023-02-24T00:24:19.080Z,97203.53
2023-02-24T00:26:46.051Z,97190.06
2023-02-24T00:29:15.977Z,97184.78
2023-02-24T00:31:43.227Z,97189.09
2023-02-24T00:34:12.671Z,97197.81
2023-02-24T00:36:39.551Z,97174.28
2023-02-24T00:39:11.591Z,97178.91
2023-02-24T00:41:42.098Z,97169.19
2023-02-24T00:44:11.728Z,97155.84
2023-02-24T00:46:46.954Z,97165.91
2023-02-24T00:49:19.320Z,97164.75
2023-02-24T00:51:48.864Z,97156.88
2023-02-24T00:54:16.856Z,97144.03
2023-02-24T00:56:46.437Z,97133.84
2023-02-24T00:59:15.512Z,97128.59
2023-02-24T01:01:45.428Z,97124.97
2023-02-24T01:04:13.705Z,97136.47
2023-02-24T01:06:48.993Z,97128.91
2023-02-24T01:09:18.905Z,97119.41
2023-02-24T01:12:22.370Z,97121.03
2023-02-24T01:14:53.794Z,97090.78
2023-02-24T01:17:22.034Z,97087.84
2023-02-24T01:19:50.160Z,97080.59
2023-02-24T01:22:19.622Z,97063.47
2023-02-24T01:24:47.188Z,97069.72
2023-02-24T01:27:15.622Z,97051.66
2023-02-24T01:29:42.091Z,97048.69
2023-02-24T01:32:17.790Z,97052.63
2023-02-24T01:34:45.300Z,97039.03
2023-02-24T01:37:16.345Z,97037.38
2023-02-24T01:39:47.130Z,97036.88
2023-02-24T01:42:21.543Z,97025.56
2023-02-24T01:44:48.130Z,97023.41
2023-02-24T01:47:18.323Z,97024.56
2023-02-24T01:49:47.652Z,97011.59
2023-02-24T01:52:24.264Z,97018.66
2023-02-24T01:54:55.803Z,97013.22
2023-02-24T01:57:25.885Z,97008.28
2023-02-24T01:59:54.835Z,97011.09
2023-02-24T02:02:23.414Z,97009.09
2023-02-24T02:04:57.294Z,97018.31
2023-02-24T02:07:27.664Z,97029.34
2023-02-24T02:09:55.370Z,97027.38
2023-02-24T02:12:24.241Z,97027.53
2023-02-24T02:14:54.159Z,97022.78
2023-02-24T02:17:43.564Z,97013.22
2023-02-24T02:20:47.956Z,97015.88
2023-02-24T02:23:33.233Z,97005.53
2023-02-24T02:26:40.498Z,96996.50
2023-02-24T02:29:45.662Z,96988.28
2023-02-24T02:32:31.831Z,96981.75
2023-02-24T02:35:19.214Z,96960.34
2023-02-24T02:37:52.717Z,96978.44
2023-02-24T02:40:37.649Z,96974.16
2023-02-24T02:43:11.507Z,96960.03
2023-02-24T02:45:51.974Z,96962.34
2023-02-24T02:48:37.624Z,96951.84
2023-02-24T02:51:11.796Z,96942.31
2023-02-24T02:54:00.568Z,96938.56
2023-02-24T02:56:48.782Z,96919.97
2023-02-24T02:59:22.618Z,96906.53
2023-02-24T03:01:52.646Z,96898.47
2023-02-24T03:04:23.376Z,96887.31
2023-02-24T03:06:57.118Z,96885.84
2023-02-24T03:09:30.435Z,96872.19
2023-02-24T03:12:05.201Z,96860.22
2023-02-24T03:14:37.671Z,96853.34
2023-02-24T03:17:13.118Z,96849.56
2023-02-24T03:19:41.632Z,96848.06
2023-02-24T03:22:13.707Z,96853.16
2023-02-24T03:24:44.830Z,96858.25
2023-02-24T03:27:13.608Z,96862.84
2023-02-24T03:29:48.801Z,96865.00
2023-02-24T03:32:25.400Z,96870.91
2023-02-24T03:35:04.402Z,96873.22
2023-02-24T03:37:33.595Z,96877.97
2023-02-24T03:40:12.059Z,96849.09
2023-02-24T03:42:43.737Z,96859.28
2023-02-24T03:45:11.094Z,96873.22
2023-02-24T03:47:37.913Z,96874.06
2023-02-24T03:50:15.279Z,96876.03
2023-02-24T03:52:55.357Z,96860.91
2023-02-24T03:55:43.690Z,96862.38
2023-02-24T03:58:24.387Z,96863.22
2023-02-24T04:01:13.928Z,96868.16
2023-02-24T04:04:01.050Z,96855.03
2023-02-24T04:06:41.819Z,96854.34
2023-02-24T04:09:20.364Z,96859.44
2023-02-24T04:12:13.796Z,96857.66
2023-02-24T04:14:51.315Z,96852.72
2023-02-24T04:17:33.327Z,96836.97
2023-02-24T04:20:16.761Z,96852.22
2023-02-24T04:22:49.507Z,96844.84
2023-02-24T04:25:20.010Z,96843.53
2023-02-24T04:27:48.132Z,96838.28
2023-02-24T04:30:15.246Z,96841.53
2023-02-24T04:32:42.882Z,96843.38
2023-02-24T04:35:12.889Z,96830.06
2023-02-24T04:37:45.901Z,96829.25
2023-02-24T04:40:17.238Z,96830.38
2023-02-24T04:42:49.143Z,96838.91
2023-02-24T04:45:26.356Z,96833.19
2023-02-24T04:48:00.843Z,96836.44
2023-02-24T04:50:32.051Z,96839.56
2023-02-24T04:53:06.882Z,96826.44
2023-02-24T04:55:39.874Z,96834.63
2023-02-24T04:58:10.382Z,96821.19
2023-02-24T05:00:40.604Z,96840.88
2023-02-24T05:03:08.662Z,96837.72
2023-02-24T05:05:35.098Z,96855.34
2023-02-24T05:08:09.345Z,96866.19
2023-02-24T05:10:44.782Z,96862.22
2023-02-24T05:13:20.379Z,96856.97
2023-02-24T05:15:48.044Z,96875.72
2023-02-24T05:18:20.327Z,96874.06
2023-02-24T05:21:08.086Z,96884.22
2023-02-24T05:23:40.349Z,96896.00
2023-02-24T05:26:09.080Z,96885.19
2023-02-24T05:28:37.378Z,96910.41
2023-02-24T05:31:08.542Z,96896.00
2023-02-24T05:33:40.068Z,96905.72
2023-02-24T05:36:09.503Z,96887.19
2023-02-24T05:38:38.504Z,96897.66
2023-02-24T05:41:16.845Z,96914.31
2023-02-24T05:43:53.407Z,96928.13
2023-02-24T05:46:28.730Z,96938.31
2023-02-24T05:48:57.267Z,96941.91
2023-02-24T05:51:25.067Z,96937.53
2023-02-24T05:53:55.738Z,96936.84
2023-02-24T05:56:23.726Z,96943.56
2023-02-24T05:59:02.517Z,96928.97
2023-02-24T06:01:34.895Z,96944.19
2023-02-24T06:04:05.980Z,96962.22
2023-02-24T06:06:37.946Z,96950.59
2023-02-24T06:09:11.095Z,96959.75
2023-02-24T06:11:39.118Z,96940.88
2023-02-24T06:14:08.871Z,96959.91
2023-02-24T06:16:37.526Z,96966.13
2023-02-24T06:19:07.738Z,96941.69
2023-02-24T06:21:35.683Z,96976.47
2023-02-24T06:24:02.521Z,96970.06
2023-02-24T06:26:33.796Z,96991.19
2023-02-24T06:29:00.379Z,96999.78
2023-02-24T06:31:29.156Z,97014.34
2023-02-24T06:33:57.832Z,97020.63
2023-02-24T06:36:24.486Z,97002.16
2023-02-24T06:38:52.678Z,97031.06
2023-02-24T06:41:19.750Z,97032.00
2023-02-24T06:43:48.419Z,97031.69
2023-02-24T06:46:16.500Z,97031.69
2023-02-24T06:48:43.716Z,97029.34
2023-02-24T06:51:15.745Z,97010.88
2023-02-24T06:53:45.361Z,97001.22
2023-02-24T06:56:20.412Z,97003.81
2023-02-24T06:58:50.733Z,96982.81
2023-02-24T07:01:22.999Z,96985.25
2023-02-24T07:04:08.096Z,96979.03
2023-02-24T07:06:38.302Z,96972.97
2023-02-24T07:09:09.150Z,96987.06
2023-02-24T07:11:36.919Z,96961.78
2023-02-24T07:14:05.903Z,96985.91
2023-02-24T07:16:35.255Z,96989.22
2023-02-24T07:19:11.295Z,96995.78
2023-02-24T07:21:46.295Z,97011.34
2023-02-24T07:24:24.851Z,97022.06
2023-02-24T07:26:57.799Z,97026.28
2023-02-24T07:29:25.912Z,97018.69
2023-02-24T07:31:56.591Z,97019.97
2023-02-24T07:34:29.354Z,97019.47
2023-02-24T07:36:57.635Z,97026.56
2023-02-24T07:39:26.661Z,97042.91
2023-02-24T07:41:57.132Z,97037.09
2023-02-24T07:44:24.547Z,97040.94
2023-02-24T07:46:51.702Z,97043.28
2023-02-24T07:49:22.560Z,97034.16
2023-02-24T07:51:53.176Z,97051.47
2023-02-24T07:54:21.497Z,97062.94
2023-02-24T07:56:56.484Z,97048.75
2023-02-24T07:59:35.295Z,97065.81
2023-02-24T08:02:04.997Z,97069.06
2023-02-24T08:04:39.758Z,97074.09
2023-02-24T08:07:15.282Z,97066.38
2023-02-24T08:09:45.078Z,97048.53
2023-02-24T08:12:18.290Z,97053.16
2023-02-24T08:14:51.058Z,97067.47
2023-02-24T08:17:26.863Z,97067.34
2023-02-24T08:20:21.651Z,97076.19
2023-02-24T08:22:53.327Z,97062.31
2023-02-24T08:25:36.845Z,97081.81
2023-02-24T08:28:09.485Z,97069.59
2023-02-24T08:30:47.454Z,97090.03
2023-02-24T08:33:19.439Z,97088.38
2023-02-24T08:35:52.206Z,97102.59
2023-02-24T08:38:23.737Z,97109.00
2023-02-24T08:40:54.539Z,97092.88
2023-02-24T08:43:35.502Z,97094.03
2023-02-24T08:46:18.747Z,97101.63
2023-02-24T08:48:55.560Z,97101.78
2023-02-24T08:51:28.961Z,97097.63
2023-02-24T08:53:59.113Z,97101.63
2023-02-24T08:56:29.157Z,97083.13
2023-02-24T08:59:05.577Z,97105.03
2023-02-24T09:01:38.628Z,97107.53
2023-02-24T09:04:09.084Z,97098.34
2023-02-24T09:06:43.322Z,97115.28
2023-02-24T09:09:17.704Z,97136.06
2023-02-24T09:11:57.029Z,97124.28
2023-02-24T09:14:30.393Z,97121.00
2023-02-24T09:17:11.704Z,97115.41
2023-02-24T09:19:51.721Z,97104.69
2023-02-24T09:22:40.948Z,97124.31
2023-02-24T09:25:24.451Z,97126.59
2023-02-24T09:28:08.335Z,97121.03
2023-02-24T09:30:36.544Z,97123.94
2023-02-24T09:33:20.752Z,97110.81
2023-02-24T09:36:10.913Z,97103.00
2023-02-24T09:38:59.533Z,97111.16
2023-02-24T09:41:56.819Z,97111.78
2023-02-24T09:44:29.474Z,97123.16
2023-02-24T09:47:39.543Z,97106.75
2023-02-24T09:50:46.872Z,97124.09
2023-02-24T09:53:17.478Z,97121.88
2023-02-24T09:56:04.322Z,97131.59
2023-02-24T09:58:47.771Z,97118.56
2023-02-24T10:01:42.897Z,97120.97
2023-02-24T10:04:54.150Z,97130.81
2023-02-24T10:07:38.669Z,97131.25
2023-02-24T10:10:20.675Z,97138.06
2023-02-24T10:12:52.710Z,97146.63
2023-02-24T10:15:44.843Z,97147.63
2023-02-24T10:18:43.775Z,97140.19
2023-02-24T10:21:30.893Z,97135.81
2023-02-24T10:24:14.595Z,97147.66
2023-02-24T10:27:00.630Z,97148.66
2023-02-24T10:29:33.663Z,97148.13
2023-02-24T10:32:23.507Z,97147.16
2023-02-24T10:34:52.231Z,97159.66
2023-02-24T10:37:28.184Z,97168.69
2023-02-24T10:40:10.533Z,97141.03
2023-02-24T10:42:45.761Z,97140.81
2023-02-24T10:45:20.085Z,97165.06
2023-02-24T10:47:58.560Z,97169.63
2023-02-24T10:50:25.276Z,97169.03
2023-02-24T10:53:03.413Z,97158.81
2023-02-24T10:55:45.933Z,97179.22
2023-02-24T10:58:38.686Z,97162.69
2023-02-24T11:01:40.463Z,97163.53
2023-02-24T11:04:33.799Z,97150.31
2023-02-24T11:07:34.681Z,97153.50
2023-02-24T11:10:11.281Z,97143.63
2023-02-24T11:13:10.384Z,97141.66
2023-02-24T11:16:02.929Z,97147.38
2023-02-24T11:20:59.950Z,97140.00
2023-02-24T11:23:38.388Z,97134.69
2023-02-24T11:26:19.186Z,97138.09
2023-02-24T11:29:04.436Z,97132.94
2023-02-24T11:31:56.261Z,97136.88
2023-02-24T11:34:28.945Z,97126.34
2023-02-24T11:36:55.670Z,97139.47
2023-02-24T11:39:42.862Z,97119.28
2023-02-24T11:42:15.086Z,97126.41
2023-02-24T11:45:06.466Z,97115.97
2023-02-24T11:47:42.354Z,97115.84
2023-02-24T11:50:37.068Z,97111.75
2023-02-24T11:53:12.218Z,97106.69
2023-02-24T11:55:43.317Z,97115.00
2023-02-24T11:58:21.467Z,97114.78
2023-02-24T12:01:01.950Z,97104.72
2023-02-24T12:03:39.665Z,97099.25
2023-02-24T12:06:21.328Z,97091.25
2023-02-24T12:08:53.906Z,97091.59
2023-02-24T12:11:42.096Z,97068.66
2023-02-24T12:14:30.223Z,97069.75
2023-02-24T12:17:18.480Z,97062.06
2023-02-24T12:19:57.452Z,97066.72
2023-02-24T12:22:30.932Z,97080.56
2023-02-24T12:24:57.432Z,97049.06
2023-02-24T12:27:52.128Z,97056.09
2023-02-24T12:30:48.597Z,97036.38
2023-02-24T12:33:35.593Z,97026.88
2023-02-24T12:36:14.725Z,97027.44
2023-02-24T12:39:15.901Z,97019.41
2023-02-24T12:42:05.873Z,97017.22
2023-02-24T12:44:41.753Z,97020.38
2023-02-24T12:47:14.285Z,97018.44
2023-02-24T12:50:09.380Z,97019.47
2023-02-24T12:53:18.529Z,97034.56
2023-02-24T12:56:00.720Z,97038.22
2023-02-24T12:58:37.313Z,97037.22
2023-02-24T13:01:21.679Z,97060.06
2023-02-24T13:04:04.363Z,97045.94
2023-02-24T13:06:31.294Z,97058.09
2023-02-24T13:09:29.278Z,97068.09
2023-02-24T13:12:07.305Z,97094.06
2023-02-24T13:14:41.752Z,97084.19
2023-02-24T13:17:11.000Z,97074.78
2023-02-24T13:19:40.064Z,97078.84
2023-02-24T13:22:11.161Z,97087.59
2023-02-24T13:24:43.592Z,97097.88
2023-02-24T13:27:13.111Z,97119.69
2023-02-24T13:29:45.341Z,97129.06
2023-02-24T13:32:29.230Z,97132.59
2023-02-24T13:35:23.455Z,97139.84
2023-02-24T13:37:49.941Z,97133.38
2023-02-24T13:40:19.036Z,97140.59
2023-02-24T13:42:57.726Z,97130.03
2023-02-24T13:45:31.177Z,97130.06
2023-02-24T13:48:25.351Z,97140.25
2023-02-24T13:50:58.149Z,97142.72
2023-02-24T13:53:57.714Z,97135.13
2023-02-24T13:56:49.245Z,97115.75
2023-02-24T13:59:33.702Z,97128.22
2023-02-24T14:02:05.261Z,97129.38
2023-02-24T14:04:35.048Z,97110.25
2023-02-24T14:07:04.870Z,97106.31
2023-02-24T14:09:35.104Z,97082.44
2023-02-24T14:12:07.792Z,97054.69
2023-02-24T14:14:34.723Z,97017.81
2023-02-24T14:17:01.203Z,97030.28
2023-02-24T14:19:28.213Z,97001.00
2023-02-24T14:21:57.160Z,96973.19
2023-02-24T14:24:26.671Z,96958.69
2023-02-24T14:26:55.870Z,96942.25
2023-02-24T14:29:27.980Z,96928.44
2023-02-24T14:31:56.383Z,96899.72
2023-02-24T14:34:25.556Z,96877.78
2023-02-24T14:36:57.139Z,96844.56
2023-02-24T14:39:31.894Z,96815.44
2023-02-24T14:42:07.644Z,96774.00
2023-02-24T14:44:34.777Z,96723.59
2023-02-24T14:47:06.480Z,96683.22
2023-02-24T14:49:34.831Z,96619.94
2023-02-24T14:52:11.902Z,96583.09
2023-02-24T14:54:45.816Z,96528.78
2023-02-24T14:57:25.435Z,96439.53
2023-02-24T14:59:57.559Z,96405.00
2023-02-24T15:02:31.041Z,96345.66
2023-02-24T15:04:58.601Z,96286.41
2023-02-24T15:07:35.177Z,96219.81
2023-02-24T15:10:02.733Z,96172.81
2023-02-24T15:12:33.584Z,96129.25
2023-02-24T15:15:28.385Z,96077.19
2023-02-24T15:18:00.187Z,96012.59
2023-02-24T15:20:34.404Z,95955.78
2023-02-24T15:23:01.476Z,95924.00
2023-02-24T15:25:42.283Z,95880.72
2023-02-24T15:28:30.612Z,95830.59
2023-02-24T15:31:10.937Z,95822.38
2023-02-24T15:33:43.607Z,95769.94
2023-02-24T15:36:19.623Z,95760.56
2023-02-24T15:38:47.353Z,95743.66
2023-02-24T15:41:14.583Z,95724.19
2023-02-24T15:43:45.733Z,95708.34
2023-02-24T15:46:15.893Z,95690.50
2023-02-24T15:48:47.940Z,95684.66
2023-02-24T15:51:41.618Z,95687.22
2023-02-24T15:54:12.899Z,95684.22
2023-02-24T15:56:40.285Z,95670.34
2023-02-24T15:59:06.720Z,95648.81
2023-02-24T16:01:33.733Z,95641.63
2023-02-24T16:04:01.167Z,95622.94
2023-02-24T16:06:28.851Z,95601.69
2023-02-24T16:08:57.247Z,95586.31
2023-02-24T16:11:38.729Z,95574.34
2023-02-24T16:14:05.533Z,95580.72
2023-02-24T16:16:33.349Z,95568.78
2023-02-24T16:18:59.946Z,95581.88
2023-02-24T16:21:26.624Z,95609.47
2023-02-24T16:23:53.431Z,95607.88
2023-02-24T16:26:23.506Z,95596.72
2023-02-24T16:28:54.606Z,95620.19
2023-02-24T16:31:22.474Z,95612.13
2023-02-24T16:33:55.018Z,95592.38
2023-02-24T16:36:24.463Z,95594.75
2023-02-24T16:38:51.740Z,95618.72
2023-02-24T16:41:18.403Z,95618.72
2023-02-24T16:43:45.112Z,95618.72
2023-02-24T16:46:18.033Z,95615.78
2023-02-24T16:48:46.626Z,95604.34
2023-02-24T16:51:15.074Z,95619.41
2023-02-24T16:53:41.773Z,95610.63
2023-02-24T16:56:09.048Z,95573.41
2023-02-24T16:58:36.498Z,95566.75
2023-02-24T17:01:05.457Z,95578.63
2023-02-24T17:03:41.609Z,95552.69
2023-02-24T17:06:08.398Z,95548.72
2023-02-24T17:08:35.891Z,95559.06
2023-02-24T17:11:03.659Z,95552.22
2023-02-24T17:13:30.413Z,95550.63
2023-02-24T17:15:57.544Z,95576.56
2023-02-24T17:18:25.496Z,95581.13
2023-02-24T17:20:52.880Z,95594.06
2023-02-24T17:23:19.758Z,95606.56
2023-02-24T17:25:50.548Z,95609.84
2023-02-24T17:28:17.101Z,95596.13
2023-02-24T17:30:43.675Z,95609.41
2023-02-24T17:33:11.076Z,95591.16
2023-02-24T17:35:37.573Z,95591.38
2023-02-24T17:38:04.035Z,95598.81
2023-02-24T17:40:30.563Z,95606.81
2023-02-24T17:42:57.073Z,95619.47
2023-02-24T17:45:27.512Z,95628.97
2023-02-24T17:47:54.830Z,95631.88
2023-02-24T17:50:21.846Z,95615.63
2023-02-24T17:52:48.440Z,95617.13
2023-02-24T17:55:15.088Z,95633.50
2023-02-24T17:57:41.658Z,95626.19
2023-02-24T18:00:09.402Z,95625.09
2023-02-24T18:02:36.585Z,95654.38
2023-02-24T18:05:03.310Z,95660.28
2023-02-24T18:07:29.996Z,95660.28
2023-02-24T18:09:56.870Z,95677.16
2023-02-24T18:12:24.777Z,95678.59
2023-02-24T18:15:07.951Z,95677.75
2023-02-24T18:17:36.939Z,95680.81
2023-02-24T18:20:04.341Z,95703.84
2023-02-24T18:22:30.847Z,95715.38
2023-02-24T18:24:57.598Z,95717.66
2023-02-24T18:27:24.214Z,95724.66
2023-02-24T18:29:51.434Z,95728.66
2023-02-24T18:32:18.495Z,95746.22
2023-02-24T18:34:45.049Z,95752.91
2023-02-24T18:37:12.108Z,95745.06
2023-02-24T18:39:38.779Z,95764.00
2023-02-24T18:42:05.490Z,95764.63
2023-02-24T18:44:31.946Z,95768.53
2023-02-24T18:46:58.483Z,95771.91
2023-02-24T18:49:25.129Z,95770.38
2023-02-24T18:51:51.645Z,95786.09
2023-02-24T18:54:18.249Z,95810.56
2023-02-24T18:56:44.939Z,95814.16
2023-02-24T18:59:11.510Z,95824.28
2023-02-24T19:01:39.520Z,95818.03
2023-02-24T19:04:08.092Z,95824.06
2023-02-24T19:06:35.769Z,95835.31
2023-02-24T19:09:09.726Z,95843.63
2023-02-24T19:11:36.884Z,95856.69
2023-02-24T19:14:04.300Z,95862.41
2023-02-24T19:16:31.070Z,95864.84
2023-02-24T19:18:58.724Z,95873.03
2023-02-24T19:21:26.632Z,95896.84
2023-02-24T19:23:53.073Z,95881.66
2023-02-24T19:26:22.900Z,95895.72
2023-02-24T19:28:50.448Z,95899.63
2023-02-24T19:31:22.150Z,95916.59
2023-02-24T19:33:53.165Z,95928.66
2023-02-24T19:36:19.910Z,95927.34
2023-02-24T19:38:46.533Z,95932.56
2023-02-24T19:41:12.961Z,95930.25
2023-02-24T19:43:42.064Z,95929.94
2023-02-24T19:46:11.117Z,95940.06
2023-02-24T19:48:38.481Z,95941.66
2023-02-24T19:51:15.928Z,95944.44
2023-02-24T19:53:42.623Z,95933.47
2023-02-24T19:56:09.522Z,95936.81
2023-02-24T19:58:36.548Z,95933.34
2023-02-24T20:01:06.084Z,95935.78
2023-02-24T20:03:32.541Z,95933.50
2023-02-24T20:05:59.112Z,95932.03
2023-02-24T20:08:25.595Z,95939.72
2023-02-24T20:11:03.182Z,95941.19
2023-02-24T20:13:30.067Z,95932.78
2023-02-24T20:16:08.558Z,95931.84
2023-02-24T20:18:35.478Z,95940.00
2023-02-24T20:21:01.967Z,95938.66
2023-02-24T20:23:29.034Z,95940.63
2023-02-24T20:25:56.578Z,95943.25
2023-02-24T20:28:23.179Z,95942.31
2023-02-24T20:30:50.886Z,95935.13
2023-02-24T20:33:18.372Z,95937.56
2023-02-24T20:35:44.822Z,95936.81
2023-02-24T20:38:15.101Z,95927.97
2023-02-24T20:40:42.335Z,95911.31
2023-02-24T20:43:09.934Z,95899.88
2023-02-24T20:45:38.258Z,95901.84
2023-02-24T20:48:04.935Z,95892.72
2023-02-24T20:50:31.575Z,95889.13
2023-02-24T20:52:58.056Z,95879.50
2023-02-24T20:55:24.610Z,95885.53
2023-02-24T20:57:51.262Z,95884.56
2023-02-24T21:00:23.139Z,95886.47
2023-02-24T21:02:49.748Z,95888.75
2023-02-24T21:05:22.749Z,95898.88
2023-02-24T21:07:50.278Z,95897.53
2023-02-24T21:10:18.177Z,95902.72
2023-02-24T21:12:46.003Z,95915.13
2023-02-24T21:15:12.811Z,95899.94
2023-02-24T21:17:39.728Z,95912.97
2023-02-24T21:20:11.232Z,95918.66
2023-02-24T21:22:40.520Z,95914.38
2023-02-24T21:25:10.807Z,95922.31
2023-02-24T21:27:38.436Z,95919.31
2023-02-24T21:30:06.882Z,95917.03
2023-02-24T21:32:33.904Z,95929.09
2023-02-24T21:35:00.732Z,95924.59
2023-02-24T21:37:27.527Z,95924.34
2023-02-24T21:39:54.044Z,95907.50
2023-02-24T21:42:22.390Z,95913.41
2023-02-24T21:44:51.087Z,95924.91
2023-02-24T21:47:18.532Z,95921.66
2023-02-24T21:49:46.192Z,95908.22
2023-02-24T21:52:13.103Z,95908.59
2023-02-24T21:54:39.698Z,95901.03
2023-02-24T21:57:07.230Z,95900.72
2023-02-24T21:59:33.751Z,95911.81
2023-02-24T22:02:00.300Z,95906.75
2023-02-24T22:04:26.798Z,95913.41
2023-02-24T22:06:53.291Z,95910.31
2023-02-24T22:09:20.285Z,95912.41
2023-02-24T22:11:48.113Z,95915.34
2023-02-24T22:14:15.591Z,95932.72
2023-02-24T22:16:43.362Z,95927.94
2023-02-24T22:19:10.843Z,95942.53
2023-02-24T22:21:39.724Z,95956.88
2023-02-24T22:24:06.628Z,95972.25
2023-02-24T22:26:33.740Z,95981.25
2023-02-24T22:29:00.939Z,95992.53
2023-02-24T22:31:29.834Z,95994.81
2023-02-24T22:33:56.390Z,96008.03
2023-02-24T22:36:25.854Z,96019.31
2023-02-24T22:38:54.205Z,96013.81
2023-02-24T22:41:23.571Z,96058.41
2023-02-24T22:43:50.558Z,96065.41
2023-02-24T22:46:21.081Z,96088.91
2023-02-24T22:48:48.006Z,96104.44
2023-02-24T22:51:14.810Z,96097.91
2023-02-24T22:53:43.707Z,96131.03
2023-02-24T22:56:12.534Z,96130.03
2023-02-24T22:58:39.648Z,96131.69
2023-02-24T23:01:11.258Z,96139.69
2023-02-24T23:03:40.513Z,96134.63
2023-02-24T23:06:13.567Z,96150.94
2023-02-24T23:08:42.213Z,96162.06
2023-02-24T23:11:12.289Z,96167.28
2023-02-24T23:13:40.417Z,96173.16
2023-02-24T23:16:10.208Z,96177.56
2023-02-24T23:21:08.492Z,96190.13
2023-02-24T23:23:36.653Z,96205.00
2023-02-24T23:26:04.763Z,96214.31
2023-02-24T23:28:31.381Z,96216.75
2023-02-24T23:30:57.917Z,96227.84
2023-02-24T23:33:24.427Z,96219.53
2023-02-24T23:35:51.384Z,96242.91
2023-02-24T23:38:17.994Z,96243.53
2023-02-24T23:40:50.744Z,96245.69
2023-02-24T23:43:18.442Z,96262.97
2023-02-24T23:45:45.834Z,96245.31
2023-02-24T23:48:14.749Z,96226.06
2023-02-24T23:50:43.556Z,96263.63
2023-02-24T23:53:10.409Z,96271.13
2023-02-24T23:55:40.792Z,96258.22
2023-02-24T23:58:07.494Z,96288.78
